sensor_id;sensor_type;location;lat;lon;timestamp;P1;durP1;ratioP1;P2;durP2;ratioP2
16304;SDS011;8261;47.678;-122.174;2022-10-19T00:02:09;63.07;;;50.03;;
16304;SDS011;8261;47.678;-122.174;2022-10-19T00:04:40;67.80;;;53.77;;
16304;SDS011;8261;47.678;-122.174;2022-10-19T00:07:11;93.77;;;71.60;;
16304;SDS011;8261;47.678;-122.174;2022-10-19T00:09:43;109.70;;;83.23;;
16304;SDS011;8261;47.678;-122.174;2022-10-19T00:12:16;115.27;;;87.60;;
16304;SDS011;8261;47.678;-122.174;2022-10-19T00:14:47;135.77;;;101.87;;
16304;SDS011;8261;47.678;-122.174;2022-10-19T00:17:19;137.83;;;101.40;;
16304;SDS011;8261;47.678;-122.174;2022-10-19T00:19:51;134.97;;;101.30;;
16304;SDS011;8261;47.678;-122.174;2022-10-19T00:22:23;134.00;;;101.87;;
16304;SDS011;8261;47.678;-122.174;2022-10-19T00:24:56;137.97;;;102.50;;
16304;SDS011;8261;47.678;-122.174;2022-10-19T00:27:29;137.23;;;103.87;;
16304;SDS011;8261;47.678;-122.174;2022-10-19T00:30:01;135.17;;;103.77;;
16304;SDS011;8261;47.678;-122.174;2022-10-19T00:32:34;141.73;;;104.97;;
16304;SDS011;8261;47.678;-122.174;2022-10-19T00:35:06;139.00;;;103.57;;
16304;SDS011;8261;47.678;-122.174;2022-10-19T00:37:38;142.30;;;105.03;;
16304;SDS011;8261;47.678;-122.174;2022-10-19T00:40:10;144.73;;;105.50;;
16304;SDS011;8261;47.678;-122.174;2022-10-19T00:42:44;151.17;;;107.13;;
16304;SDS011;8261;47.678;-122.174;2022-10-19T00:45:16;146.90;;;107.03;;
16304;SDS011;8261;47.678;-122.174;2022-10-19T00:47:48;147.47;;;108.07;;
16304;SDS011;8261;47.678;-122.174;2022-10-19T00:50:21;147.20;;;109.20;;
16304;SDS011;8261;47.678;-122.174;2022-10-19T00:52:53;147.90;;;110.97;;
16304;SDS011;8261;47.678;-122.174;2022-10-19T00:55:24;149.67;;;110.43;;
16304;SDS011;8261;47.678;-122.174;2022-10-19T00:57:59;151.13;;;112.03;;
16304;SDS011;8261;47.678;-122.174;2022-10-19T01:00:32;149.67;;;111.43;;
16304;SDS011;8261;47.678;-122.174;2022-10-19T01:03:05;153.17;;;111.37;;
16304;SDS011;8261;47.678;-122.174;2022-10-19T01:05:38;157.37;;;116.17;;
16304;SDS011;8261;47.678;-122.174;2022-10-19T01:08:11;154.93;;;113.47;;
16304;SDS011;8261;47.678;-122.174;2022-10-19T01:10:43;162.90;;;116.87;;
16304;SDS011;8261;47.678;-122.174;2022-10-19T01:13:25;158.63;;;114.07;;
16304;SDS011;8261;47.678;-122.174;2022-10-19T01:16:06;157.07;;;113.90;;
16304;SDS011;8261;47.678;-122.174;2022-10-19T01:18:48;155.67;;;115.20;;
16304;SDS011;8261;47.678;-122.174;2022-10-19T01:21:25;163.57;;;116.93;;
16304;SDS011;8261;47.678;-122.174;2022-10-19T01:24:21;161.40;;;117.80;;
16304;SDS011;8261;47.678;-122.174;2022-10-19T01:30:15;162.30;;;116.97;;
16304;SDS011;8261;47.678;-122.174;2022-10-19T01:32:56;163.27;;;117.03;;
16304;SDS011;8261;47.678;-122.174;2022-10-19T01:35:34;168.10;;;121.70;;
16304;SDS011;8261;47.678;-122.174;2022-10-19T01:38:14;164.80;;;119.57;;
16304;SDS011;8261;47.678;-122.174;2022-10-19T01:40:55;169.43;;;121.27;;
16304;SDS011;8261;47.678;-122.174;2022-10-19T01:43:35;163.83;;;120.10;;
16304;SDS011;8261;47.678;-122.174;2022-10-19T01:46:12;176.80;;;123.80;;
16304;SDS011;8261;47.678;-122.174;2022-10-19T01:48:49;180.90;;;127.37;;
16304;SDS011;8261;47.678;-122.174;2022-10-19T01:51:25;179.30;;;125.30;;
16304;SDS011;8261;47.678;-122.174;2022-10-19T01:54:00;178.17;;;123.77;;
16304;SDS011;8261;47.678;-122.174;2022-10-19T01:56:35;173.03;;;119.47;;
16304;SDS011;8261;47.678;-122.174;2022-10-19T01:59:09;174.23;;;122.23;;
16304;SDS011;8261;47.678;-122.174;2022-10-19T02:01:44;180.80;;;125.60;;
16304;SDS011;8261;47.678;-122.174;2022-10-19T02:04:19;177.00;;;123.00;;
16304;SDS011;8261;47.678;-122.174;2022-10-19T02:06:51;174.57;;;122.63;;
16304;SDS011;8261;47.678;-122.174;2022-10-19T02:09:24;177.30;;;122.90;;
16304;SDS011;8261;47.678;-122.174;2022-10-19T02:11:55;182.07;;;126.93;;
16304;SDS011;8261;47.678;-122.174;2022-10-19T02:14:31;177.60;;;121.77;;
16304;SDS011;8261;47.678;-122.174;2022-10-19T02:17:10;176.90;;;123.07;;
16304;SDS011;8261;47.678;-122.174;2022-10-19T02:19:44;168.40;;;119.63;;
16304;SDS011;8261;47.678;-122.174;2022-10-19T02:22:15;171.87;;;121.20;;
16304;SDS011;8261;47.678;-122.174;2022-10-19T02:24:46;170.03;;;117.63;;
16304;SDS011;8261;47.678;-122.174;2022-10-19T02:27:17;166.53;;;116.37;;
16304;SDS011;8261;47.678;-122.174;2022-10-19T02:29:49;166.73;;;114.30;;
16304;SDS011;8261;47.678;-122.174;2022-10-19T02:32:22;159.10;;;113.50;;
16304;SDS011;8261;47.678;-122.174;2022-10-19T02:34:54;163.03;;;113.30;;
16304;SDS011;8261;47.678;-122.174;2022-10-19T02:37:26;150.03;;;107.07;;
16304;SDS011;8261;47.678;-122.174;2022-10-19T02:39:58;156.20;;;109.50;;
16304;SDS011;8261;47.678;-122.174;2022-10-19T02:42:31;165.80;;;111.40;;
16304;SDS011;8261;47.678;-122.174;2022-10-19T02:45:06;153.30;;;105.87;;
16304;SDS011;8261;47.678;-122.174;2022-10-19T02:47:44;148.13;;;103.13;;
16304;SDS011;8261;47.678;-122.174;2022-10-19T02:50:19;149.13;;;101.87;;
16304;SDS011;8261;47.678;-122.174;2022-10-19T02:52:57;144.60;;;99.27;;
16304;SDS011;8261;47.678;-122.174;2022-10-19T02:55:29;142.87;;;97.43;;
16304;SDS011;8261;47.678;-122.174;2022-10-19T02:58:00;138.53;;;97.67;;
16304;SDS011;8261;47.678;-122.174;2022-10-19T03:00:34;144.70;;;99.33;;
16304;SDS011;8261;47.678;-122.174;2022-10-19T03:03:10;141.90;;;97.77;;
16304;SDS011;8261;47.678;-122.174;2022-10-19T03:05:42;143.80;;;98.50;;
16304;SDS011;8261;47.678;-122.174;2022-10-19T03:08:13;149.40;;;97.03;;
16304;SDS011;8261;47.678;-122.174;2022-10-19T03:10:44;144.07;;;99.97;;
16304;SDS011;8261;47.678;-122.174;2022-10-19T03:13:16;146.07;;;100.33;;
16304;SDS011;8261;47.678;-122.174;2022-10-19T03:15:47;148.23;;;102.30;;
16304;SDS011;8261;47.678;-122.174;2022-10-19T03:18:23;147.87;;;101.60;;
16304;SDS011;8261;47.678;-122.174;2022-10-19T03:21:00;146.53;;;101.77;;
16304;SDS011;8261;47.678;-122.174;2022-10-19T03:23:33;146.40;;;99.50;;
16304;SDS011;8261;47.678;-122.174;2022-10-19T03:26:04;146.27;;;99.17;;
16304;SDS011;8261;47.678;-122.174;2022-10-19T03:28:38;139.67;;;96.93;;
16304;SDS011;8261;47.678;-122.174;2022-10-19T03:31:09;141.87;;;96.60;;
16304;SDS011;8261;47.678;-122.174;2022-10-19T03:33:42;135.13;;;92.57;;
16304;SDS011;8261;47.678;-122.174;2022-10-19T03:36:15;132.20;;;90.43;;
16304;SDS011;8261;47.678;-122.174;2022-10-19T03:38:52;129.40;;;89.37;;
16304;SDS011;8261;47.678;-122.174;2022-10-19T03:41:25;132.20;;;87.77;;
16304;SDS011;8261;47.678;-122.174;2022-10-19T03:43:57;121.30;;;84.73;;
16304;SDS011;8261;47.678;-122.174;2022-10-19T03:46:29;124.37;;;84.90;;
16304;SDS011;8261;47.678;-122.174;2022-10-19T03:49:03;121.37;;;83.10;;
16304;SDS011;8261;47.678;-122.174;2022-10-19T03:51:35;117.80;;;83.67;;
16304;SDS011;8261;47.678;-122.174;2022-10-19T03:54:07;115.73;;;79.00;;
16304;SDS011;8261;47.678;-122.174;2022-10-19T03:56:41;113.80;;;78.00;;
16304;SDS011;8261;47.678;-122.174;2022-10-19T03:59:13;114.33;;;77.97;;
16304;SDS011;8261;47.678;-122.174;2022-10-19T04:01:45;114.43;;;75.93;;
16304;SDS011;8261;47.678;-122.174;2022-10-19T04:04:18;112.67;;;76.50;;
16304;SDS011;8261;47.678;-122.174;2022-10-19T04:06:50;106.47;;;74.87;;
16304;SDS011;8261;47.678;-122.174;2022-10-19T04:09:23;108.37;;;76.20;;
16304;SDS011;8261;47.678;-122.174;2022-10-19T04:11:55;110.40;;;75.07;;
16304;SDS011;8261;47.678;-122.174;2022-10-19T04:14:26;107.73;;;73.83;;
16304;SDS011;8261;47.678;-122.174;2022-10-19T04:17:11;116.03;;;76.20;;
16304;SDS011;8261;47.678;-122.174;2022-10-19T04:19:44;111.70;;;76.43;;
16304;SDS011;8261;47.678;-122.174;2022-10-19T04:22:15;110.27;;;74.53;;
16304;SDS011;8261;47.678;-122.174;2022-10-19T04:24:46;117.77;;;77.90;;
16304;SDS011;8261;47.678;-122.174;2022-10-19T04:27:17;112.10;;;75.27;;
16304;SDS011;8261;47.678;-122.174;2022-10-19T04:29:49;110.80;;;77.87;;
16304;SDS011;8261;47.678;-122.174;2022-10-19T04:32:21;110.07;;;75.33;;
16304;SDS011;8261;47.678;-122.174;2022-10-19T04:34:54;117.50;;;78.83;;
16304;SDS011;8261;47.678;-122.174;2022-10-19T04:37:25;111.20;;;76.47;;
16304;SDS011;8261;47.678;-122.174;2022-10-19T04:39:56;114.53;;;77.97;;
16304;SDS011;8261;47.678;-122.174;2022-10-19T04:42:28;116.30;;;77.10;;
16304;SDS011;8261;47.678;-122.174;2022-10-19T04:44:59;119.87;;;80.07;;
16304;SDS011;8261;47.678;-122.174;2022-10-19T04:47:30;110.90;;;76.30;;
16304;SDS011;8261;47.678;-122.174;2022-10-19T04:50:04;112.53;;;77.23;;
16304;SDS011;8261;47.678;-122.174;2022-10-19T04:52:35;113.60;;;78.33;;
16304;SDS011;8261;47.678;-122.174;2022-10-19T04:55:07;118.17;;;80.23;;
16304;SDS011;8261;47.678;-122.174;2022-10-19T04:57:40;113.33;;;78.47;;
16304;SDS011;8261;47.678;-122.174;2022-10-19T05:00:12;116.03;;;76.10;;
16304;SDS011;8261;47.678;-122.174;2022-10-19T05:02:43;112.87;;;78.70;;
16304;SDS011;8261;47.678;-122.174;2022-10-19T05:05:17;113.90;;;76.57;;
16304;SDS011;8261;47.678;-122.174;2022-10-19T05:07:48;111.20;;;77.13;;
16304;SDS011;8261;47.678;-122.174;2022-10-19T05:10:20;112.20;;;78.30;;
16304;SDS011;8261;47.678;-122.174;2022-10-19T05:12:51;115.93;;;79.23;;
16304;SDS011;8261;47.678;-122.174;2022-10-19T05:15:23;119.20;;;79.47;;
16304;SDS011;8261;47.678;-122.174;2022-10-19T05:17:55;114.90;;;77.83;;
16304;SDS011;8261;47.678;-122.174;2022-10-19T05:20:29;109.73;;;75.67;;
16304;SDS011;8261;47.678;-122.174;2022-10-19T05:23:00;119.30;;;76.87;;
16304;SDS011;8261;47.678;-122.174;2022-10-19T05:25:33;109.57;;;76.57;;
16304;SDS011;8261;47.678;-122.174;2022-10-19T05:28:04;114.17;;;78.43;;
16304;SDS011;8261;47.678;-122.174;2022-10-19T05:30:35;116.37;;;78.00;;
16304;SDS011;8261;47.678;-122.174;2022-10-19T05:33:13;111.93;;;77.13;;
16304;SDS011;8261;47.678;-122.174;2022-10-19T05:35:47;113.10;;;76.70;;
16304;SDS011;8261;47.678;-122.174;2022-10-19T05:38:18;116.23;;;77.93;;
16304;SDS011;8261;47.678;-122.174;2022-10-19T05:40:50;115.43;;;78.43;;
16304;SDS011;8261;47.678;-122.174;2022-10-19T05:43:21;116.90;;;79.53;;
16304;SDS011;8261;47.678;-122.174;2022-10-19T05:45:52;119.13;;;81.70;;
16304;SDS011;8261;47.678;-122.174;2022-10-19T05:48:23;109.30;;;76.73;;
16304;SDS011;8261;47.678;-122.174;2022-10-19T05:51:02;121.93;;;81.43;;
16304;SDS011;8261;47.678;-122.174;2022-10-19T05:53:35;123.43;;;82.43;;
16304;SDS011;8261;47.678;-122.174;2022-10-19T05:56:07;121.73;;;82.77;;
16304;SDS011;8261;47.678;-122.174;2022-10-19T05:58:43;125.77;;;84.97;;
16304;SDS011;8261;47.678;-122.174;2022-10-19T06:01:16;130.60;;;87.70;;
16304;SDS011;8261;47.678;-122.174;2022-10-19T06:03:50;133.37;;;88.17;;
16304;SDS011;8261;47.678;-122.174;2022-10-19T06:06:24;126.47;;;86.23;;
16304;SDS011;8261;47.678;-122.174;2022-10-19T06:08:56;130.43;;;88.37;;
16304;SDS011;8261;47.678;-122.174;2022-10-19T06:11:28;137.20;;;92.13;;
16304;SDS011;8261;47.678;-122.174;2022-10-19T06:14:03;132.20;;;92.57;;
16304;SDS011;8261;47.678;-122.174;2022-10-19T06:16:36;143.87;;;94.23;;
16304;SDS011;8261;47.678;-122.174;2022-10-19T06:19:08;140.20;;;94.47;;
16304;SDS011;8261;47.678;-122.174;2022-10-19T06:21:42;138.63;;;95.50;;
16304;SDS011;8261;47.678;-122.174;2022-10-19T06:24:14;139.40;;;94.87;;
16304;SDS011;8261;47.678;-122.174;2022-10-19T06:26:45;141.83;;;95.43;;
16304;SDS011;8261;47.678;-122.174;2022-10-19T06:29:16;139.30;;;96.30;;
16304;SDS011;8261;47.678;-122.174;2022-10-19T06:31:47;150.03;;;101.90;;
16304;SDS011;8261;47.678;-122.174;2022-10-19T06:34:18;149.27;;;102.33;;
16304;SDS011;8261;47.678;-122.174;2022-10-19T06:36:52;159.07;;;104.93;;
16304;SDS011;8261;47.678;-122.174;2022-10-19T06:39:23;151.77;;;104.70;;
16304;SDS011;8261;47.678;-122.174;2022-10-19T06:41:54;163.43;;;107.63;;
16304;SDS011;8261;47.678;-122.174;2022-10-19T06:44:26;152.13;;;104.13;;
16304;SDS011;8261;47.678;-122.174;2022-10-19T06:46:57;152.63;;;103.63;;
16304;SDS011;8261;47.678;-122.174;2022-10-19T06:49:29;156.67;;;105.97;;
16304;SDS011;8261;47.678;-122.174;2022-10-19T06:52:05;152.13;;;104.10;;
16304;SDS011;8261;47.678;-122.174;2022-10-19T06:54:35;155.03;;;105.60;;
16304;SDS011;8261;47.678;-122.174;2022-10-19T06:57:07;153.83;;;104.67;;
16304;SDS011;8261;47.678;-122.174;2022-10-19T06:59:38;153.33;;;106.27;;
16304;SDS011;8261;47.678;-122.174;2022-10-19T07:02:09;149.53;;;104.47;;
16304;SDS011;8261;47.678;-122.174;2022-10-19T07:04:42;151.10;;;104.07;;
16304;SDS011;8261;47.678;-122.174;2022-10-19T07:07:16;151.10;;;103.73;;
16304;SDS011;8261;47.678;-122.174;2022-10-19T07:09:47;154.17;;;104.27;;
16304;SDS011;8261;47.678;-122.174;2022-10-19T07:12:20;148.97;;;102.33;;
16304;SDS011;8261;47.678;-122.174;2022-10-19T07:14:51;145.70;;;98.67;;
16304;SDS011;8261;47.678;-122.174;2022-10-19T07:17:22;142.47;;;98.13;;
16304;SDS011;8261;47.678;-122.174;2022-10-19T07:19:53;142.87;;;96.13;;
16304;SDS011;8261;47.678;-122.174;2022-10-19T07:22:27;139.83;;;94.27;;
16304;SDS011;8261;47.678;-122.174;2022-10-19T07:24:59;133.60;;;89.60;;
16304;SDS011;8261;47.678;-122.174;2022-10-19T07:27:31;133.77;;;92.33;;
16304;SDS011;8261;47.678;-122.174;2022-10-19T07:30:06;135.40;;;92.07;;
16304;SDS011;8261;47.678;-122.174;2022-10-19T07:32:39;140.57;;;92.03;;
16304;SDS011;8261;47.678;-122.174;2022-10-19T07:35:12;128.23;;;87.13;;
16304;SDS011;8261;47.678;-122.174;2022-10-19T07:37:46;129.80;;;86.57;;
16304;SDS011;8261;47.678;-122.174;2022-10-19T07:40:17;128.30;;;84.80;;
16304;SDS011;8261;47.678;-122.174;2022-10-19T07:42:49;122.67;;;83.37;;
16304;SDS011;8261;47.678;-122.174;2022-10-19T07:45:22;122.17;;;83.60;;
16304;SDS011;8261;47.678;-122.174;2022-10-19T07:47:54;121.70;;;80.53;;
16304;SDS011;8261;47.678;-122.174;2022-10-19T07:50:25;122.83;;;82.77;;
16304;SDS011;8261;47.678;-122.174;2022-10-19T07:52:59;123.83;;;81.13;;
16304;SDS011;8261;47.678;-122.174;2022-10-19T07:55:32;117.57;;;80.50;;
16304;SDS011;8261;47.678;-122.174;2022-10-19T07:58:03;112.73;;;79.10;;
16304;SDS011;8261;47.678;-122.174;2022-10-19T08:00:35;116.90;;;78.73;;
16304;SDS011;8261;47.678;-122.174;2022-10-19T08:03:06;117.43;;;78.93;;
16304;SDS011;8261;47.678;-122.174;2022-10-19T08:05:58;118.73;;;79.17;;
16304;SDS011;8261;47.678;-122.174;2022-10-19T08:08:34;118.63;;;80.40;;
16304;SDS011;8261;47.678;-122.174;2022-10-19T08:11:06;116.97;;;80.73;;
16304;SDS011;8261;47.678;-122.174;2022-10-19T08:13:37;120.47;;;83.63;;
16304;SDS011;8261;47.678;-122.174;2022-10-19T08:16:19;121.47;;;82.83;;
16304;SDS011;8261;47.678;-122.174;2022-10-19T08:18:54;126.27;;;83.23;;
16304;SDS011;8261;47.678;-122.174;2022-10-19T08:21:27;130.60;;;84.30;;
16304;SDS011;8261;47.678;-122.174;2022-10-19T08:24:01;119.37;;;83.40;;
16304;SDS011;8261;47.678;-122.174;2022-10-19T08:26:35;120.53;;;84.13;;
16304;SDS011;8261;47.678;-122.174;2022-10-19T08:29:09;122.30;;;86.30;;
16304;SDS011;8261;47.678;-122.174;2022-10-19T08:31:42;126.23;;;85.93;;
16304;SDS011;8261;47.678;-122.174;2022-10-19T08:34:14;123.73;;;85.10;;
16304;SDS011;8261;47.678;-122.174;2022-10-19T08:36:45;123.83;;;84.00;;
16304;SDS011;8261;47.678;-122.174;2022-10-19T08:39:18;126.63;;;83.43;;
16304;SDS011;8261;47.678;-122.174;2022-10-19T08:41:52;119.67;;;79.27;;
16304;SDS011;8261;47.678;-122.174;2022-10-19T08:44:33;117.70;;;80.00;;
16304;SDS011;8261;47.678;-122.174;2022-10-19T08:47:21;115.63;;;80.43;;
16304;SDS011;8261;47.678;-122.174;2022-10-19T08:50:10;118.67;;;79.90;;
16304;SDS011;8261;47.678;-122.174;2022-10-19T08:52:48;119.10;;;81.03;;
16304;SDS011;8261;47.678;-122.174;2022-10-19T08:55:28;115.73;;;79.47;;
16304;SDS011;8261;47.678;-122.174;2022-10-19T08:58:15;110.53;;;77.53;;
16304;SDS011;8261;47.678;-122.174;2022-10-19T09:01:03;127.60;;;83.50;;
16304;SDS011;8261;47.678;-122.174;2022-10-19T09:03:41;122.67;;;84.37;;
16304;SDS011;8261;47.678;-122.174;2022-10-19T09:06:23;124.60;;;84.73;;
16304;SDS011;8261;47.678;-122.174;2022-10-19T09:08:59;123.50;;;85.13;;
16304;SDS011;8261;47.678;-122.174;2022-10-19T09:11:36;128.90;;;86.87;;
16304;SDS011;8261;47.678;-122.174;2022-10-19T09:14:12;133.80;;;88.50;;
16304;SDS011;8261;47.678;-122.174;2022-10-19T09:16:48;130.93;;;91.60;;
16304;SDS011;8261;47.678;-122.174;2022-10-19T09:19:20;135.93;;;91.97;;
16304;SDS011;8261;47.678;-122.174;2022-10-19T09:21:56;142.20;;;93.33;;
16304;SDS011;8261;47.678;-122.174;2022-10-19T09:24:33;137.57;;;91.53;;
16304;SDS011;8261;47.678;-122.174;2022-10-19T09:27:14;133.20;;;92.60;;
16304;SDS011;8261;47.678;-122.174;2022-10-19T09:29:50;144.70;;;96.27;;
16304;SDS011;8261;47.678;-122.174;2022-10-19T09:32:25;139.40;;;94.50;;
16304;SDS011;8261;47.678;-122.174;2022-10-19T09:35:02;138.10;;;96.00;;
16304;SDS011;8261;47.678;-122.174;2022-10-19T09:37:36;140.30;;;98.57;;
16304;SDS011;8261;47.678;-122.174;2022-10-19T09:40:16;141.40;;;96.07;;
16304;SDS011;8261;47.678;-122.174;2022-10-19T09:42:54;144.20;;;98.23;;
16304;SDS011;8261;47.678;-122.174;2022-10-19T09:45:32;144.43;;;97.63;;
16304;SDS011;8261;47.678;-122.174;2022-10-19T09:48:12;145.17;;;99.13;;
16304;SDS011;8261;47.678;-122.174;2022-10-19T09:50:52;147.50;;;99.27;;
16304;SDS011;8261;47.678;-122.174;2022-10-19T09:53:26;148.07;;;101.90;;
16304;SDS011;8261;47.678;-122.174;2022-10-19T09:55:59;151.50;;;103.73;;
16304;SDS011;8261;47.678;-122.174;2022-10-19T09:58:34;152.67;;;105.47;;
16304;SDS011;8261;47.678;-122.174;2022-10-19T10:04:12;148.07;;;103.37;;
16304;SDS011;8261;47.678;-122.174;2022-10-19T10:06:45;161.57;;;107.00;;
16304;SDS011;8261;47.678;-122.174;2022-10-19T10:09:18;154.63;;;105.87;;
16304;SDS011;8261;47.678;-122.174;2022-10-19T10:11:53;156.17;;;106.40;;
16304;SDS011;8261;47.678;-122.174;2022-10-19T10:14:31;165.07;;;108.80;;
16304;SDS011;8261;47.678;-122.174;2022-10-19T10:17:06;149.43;;;103.27;;
16304;SDS011;8261;47.678;-122.174;2022-10-19T10:20:00;158.33;;;103.97;;
16304;SDS011;8261;47.678;-122.174;2022-10-19T10:22:53;149.87;;;100.67;;
16304;SDS011;8261;47.678;-122.174;2022-10-19T10:25:27;150.37;;;101.70;;
16304;SDS011;8261;47.678;-122.174;2022-10-19T10:28:00;147.73;;;101.73;;
16304;SDS011;8261;47.678;-122.174;2022-10-19T10:30:35;149.83;;;103.30;;
16304;SDS011;8261;47.678;-122.174;2022-10-19T10:33:08;143.67;;;100.30;;
16304;SDS011;8261;47.678;-122.174;2022-10-19T10:36:06;146.07;;;99.67;;
16304;SDS011;8261;47.678;-122.174;2022-10-19T10:38:39;146.03;;;101.97;;
16304;SDS011;8261;47.678;-122.174;2022-10-19T10:41:13;146.70;;;97.60;;
16304;SDS011;8261;47.678;-122.174;2022-10-19T10:43:51;146.03;;;97.47;;
16304;SDS011;8261;47.678;-122.174;2022-10-19T10:46:33;140.63;;;98.90;;
16304;SDS011;8261;47.678;-122.174;2022-10-19T10:49:20;145.87;;;97.37;;
16304;SDS011;8261;47.678;-122.174;2022-10-19T10:51:53;146.77;;;100.17;;
16304;SDS011;8261;47.678;-122.174;2022-10-19T10:54:27;149.97;;;99.40;;
16304;SDS011;8261;47.678;-122.174;2022-10-19T10:59:51;133.27;;;92.17;;
16304;SDS011;8261;47.678;-122.174;2022-10-19T11:05:21;145.93;;;97.67;;
16304;SDS011;8261;47.678;-122.174;2022-10-19T11:07:57;157.83;;;99.10;;
16304;SDS011;8261;47.678;-122.174;2022-10-19T11:10:34;157.00;;;103.33;;
16304;SDS011;8261;47.678;-122.174;2022-10-19T11:13:11;154.27;;;102.30;;
16304;SDS011;8261;47.678;-122.174;2022-10-19T11:15:50;155.60;;;103.77;;
16304;SDS011;8261;47.678;-122.174;2022-10-19T11:18:26;157.07;;;105.20;;
16304;SDS011;8261;47.678;-122.174;2022-10-19T11:21:03;157.10;;;109.83;;
16304;SDS011;8261;47.678;-122.174;2022-10-19T11:23:46;175.63;;;116.10;;
16304;SDS011;8261;47.678;-122.174;2022-10-19T11:26:26;178.63;;;116.67;;
16304;SDS011;8261;47.678;-122.174;2022-10-19T11:29:08;177.90;;;117.03;;
16304;SDS011;8261;47.678;-122.174;2022-10-19T11:31:48;180.57;;;119.00;;
16304;SDS011;8261;47.678;-122.174;2022-10-19T11:34:31;181.43;;;120.50;;
16304;SDS011;8261;47.678;-122.174;2022-10-19T11:37:19;183.90;;;120.50;;
16304;SDS011;8261;47.678;-122.174;2022-10-19T11:40:01;183.70;;;121.10;;
16304;SDS011;8261;47.678;-122.174;2022-10-19T11:42:48;183.37;;;119.87;;
16304;SDS011;8261;47.678;-122.174;2022-10-19T11:45:38;188.73;;;120.70;;
16304;SDS011;8261;47.678;-122.174;2022-10-19T11:48:24;183.77;;;120.13;;
16304;SDS011;8261;47.678;-122.174;2022-10-19T11:51:13;185.33;;;122.53;;
16304;SDS011;8261;47.678;-122.174;2022-10-19T11:53:53;183.20;;;121.07;;
16304;SDS011;8261;47.678;-122.174;2022-10-19T11:56:31;181.23;;;120.70;;
16304;SDS011;8261;47.678;-122.174;2022-10-19T11:59:29;182.83;;;118.47;;
16304;SDS011;8261;47.678;-122.174;2022-10-19T12:02:13;184.00;;;122.50;;
16304;SDS011;8261;47.678;-122.174;2022-10-19T12:04:59;175.60;;;120.77;;
16304;SDS011;8261;47.678;-122.174;2022-10-19T12:10:30;180.97;;;119.77;;
16304;SDS011;8261;47.678;-122.174;2022-10-19T12:13:10;174.03;;;117.97;;
16304;SDS011;8261;47.678;-122.174;2022-10-19T12:15:44;178.70;;;120.07;;
16304;SDS011;8261;47.678;-122.174;2022-10-19T12:18:21;183.47;;;120.60;;
16304;SDS011;8261;47.678;-122.174;2022-10-19T12:21:00;181.70;;;120.77;;
16304;SDS011;8261;47.678;-122.174;2022-10-19T12:23:37;174.53;;;121.50;;
16304;SDS011;8261;47.678;-122.174;2022-10-19T12:26:13;176.67;;;120.07;;
16304;SDS011;8261;47.678;-122.174;2022-10-19T12:28:46;181.13;;;120.43;;
16304;SDS011;8261;47.678;-122.174;2022-10-19T12:31:20;184.97;;;121.57;;
16304;SDS011;8261;47.678;-122.174;2022-10-19T12:33:59;172.40;;;120.43;;
16304;SDS011;8261;47.678;-122.174;2022-10-19T12:36:38;178.43;;;119.67;;
16304;SDS011;8261;47.678;-122.174;2022-10-19T12:39:18;172.40;;;117.93;;
16304;SDS011;8261;47.678;-122.174;2022-10-19T12:41:58;175.40;;;116.40;;
16304;SDS011;8261;47.678;-122.174;2022-10-19T12:45:02;170.53;;;117.03;;
16304;SDS011;8261;47.678;-122.174;2022-10-19T12:51:02;173.87;;;116.00;;
16304;SDS011;8261;47.678;-122.174;2022-10-19T12:53:39;168.83;;;114.63;;
16304;SDS011;8261;47.678;-122.174;2022-10-19T12:56:16;176.93;;;116.50;;
16304;SDS011;8261;47.678;-122.174;2022-10-19T12:58:54;171.67;;;117.10;;
16304;SDS011;8261;47.678;-122.174;2022-10-19T13:01:28;170.50;;;112.97;;
16304;SDS011;8261;47.678;-122.174;2022-10-19T13:04:12;170.57;;;114.63;;
16304;SDS011;8261;47.678;-122.174;2022-10-19T13:06:45;174.83;;;115.00;;
16304;SDS011;8261;47.678;-122.174;2022-10-19T13:09:20;173.53;;;114.93;;
16304;SDS011;8261;47.678;-122.174;2022-10-19T13:15:08;191.13;;;127.40;;
16304;SDS011;8261;47.678;-122.174;2022-10-19T13:21:43;228.93;;;146.33;;
16304;SDS011;8261;47.678;-122.174;2022-10-19T13:24:25;228.63;;;146.20;;
16304;SDS011;8261;47.678;-122.174;2022-10-19T13:27:22;231.63;;;148.40;;
16304;SDS011;8261;47.678;-122.174;2022-10-19T13:29:57;241.30;;;153.60;;
16304;SDS011;8261;47.678;-122.174;2022-10-19T13:32:35;251.53;;;160.67;;
16304;SDS011;8261;47.678;-122.174;2022-10-19T13:38:18;247.70;;;155.77;;
16304;SDS011;8261;47.678;-122.174;2022-10-19T13:41:04;251.23;;;157.83;;
16304;SDS011;8261;47.678;-122.174;2022-10-19T13:43:40;234.87;;;154.53;;
16304;SDS011;8261;47.678;-122.174;2022-10-19T13:46:21;245.83;;;157.73;;
16304;SDS011;8261;47.678;-122.174;2022-10-19T13:58:09;248.97;;;157.50;;
16304;SDS011;8261;47.678;-122.174;2022-10-19T14:01:09;247.53;;;156.47;;
16304;SDS011;8261;47.678;-122.174;2022-10-19T14:04:15;241.13;;;155.80;;
16304;SDS011;8261;47.678;-122.174;2022-10-19T14:06:56;242.23;;;154.40;;
16304;SDS011;8261;47.678;-122.174;2022-10-19T14:09:46;244.43;;;155.30;;
16304;SDS011;8261;47.678;-122.174;2022-10-19T14:12:33;244.60;;;154.47;;
16304;SDS011;8261;47.678;-122.174;2022-10-19T14:15:14;252.63;;;157.07;;
16304;SDS011;8261;47.678;-122.174;2022-10-19T14:17:51;242.87;;;155.03;;
16304;SDS011;8261;47.678;-122.174;2022-10-19T14:20:27;246.73;;;156.93;;
16304;SDS011;8261;47.678;-122.174;2022-10-19T14:23:16;242.27;;;156.23;;
16304;SDS011;8261;47.678;-122.174;2022-10-19T14:25:50;247.00;;;154.93;;
16304;SDS011;8261;47.678;-122.174;2022-10-19T14:28:23;246.97;;;157.37;;
16304;SDS011;8261;47.678;-122.174;2022-10-19T14:30:56;246.27;;;155.27;;
16304;SDS011;8261;47.678;-122.174;2022-10-19T14:33:31;239.93;;;153.93;;
16304;SDS011;8261;47.678;-122.174;2022-10-19T14:36:04;242.67;;;154.40;;
16304;SDS011;8261;47.678;-122.174;2022-10-19T14:38:36;238.30;;;151.17;;
16304;SDS011;8261;47.678;-122.174;2022-10-19T14:46:51;239.43;;;153.13;;
16304;SDS011;8261;47.678;-122.174;2022-10-19T14:49:22;240.13;;;152.80;;
16304;SDS011;8261;47.678;-122.174;2022-10-19T14:51:54;239.67;;;149.67;;
16304;SDS011;8261;47.678;-122.174;2022-10-19T14:54:30;248.23;;;154.93;;
16304;SDS011;8261;47.678;-122.174;2022-10-19T14:57:05;239.40;;;152.40;;
16304;SDS011;8261;47.678;-122.174;2022-10-19T14:59:42;247.63;;;153.87;;
16304;SDS011;8261;47.678;-122.174;2022-10-19T15:02:16;248.03;;;156.87;;
16304;SDS011;8261;47.678;-122.174;2022-10-19T15:04:52;246.37;;;162.53;;
16304;SDS011;8261;47.678;-122.174;2022-10-19T15:07:29;252.83;;;160.17;;
16304;SDS011;8261;47.678;-122.174;2022-10-19T15:10:05;251.93;;;160.73;;